Time;durP1;ratioP1;P1;durP2;ratioP2;P2;SDS_P1;SDS_P2;PMS_P1;PMS_P2;Temp;Humidity;BMP_temperature;BMP_pressure;BME280_temperature;BME280_humidity;BME280_pressure;Samples;Min_cycle;Max_cycle;Signal;HPM_P1;HPM_P2
2022/03/25 00:00:47;;;;;;;37.25;13.75;;;;;;;;;;8469768;28;20051;-88
2022/03/25 00:04:50;;;;;;;39.17;14.80;;;;;;;;;;8469403;28;20039;-88
2022/03/25 00:08:53;;;;;;;33.85;14.15;;;;;;;;;;8469282;28;20066;-91
2022/03/25 00:12:57;;;;;;;31.45;13.48;;;;;;;;;;8469208;28;20537;-92
2022/03/25 00:16:59;;;;;;;28.50;12.88;;;;;;;;;;8469260;28;20047;-92
2022/03/25 00:21:02;;;;;;;30.40;12.90;;;;;;;;;;8494704;27;20043;-89
2022/03/25 00:25:06;;;;;;;31.40;12.48;;;;;;;;;;8502344;27;20440;-92
2022/03/25 00:29:10;;;;;;;31.27;13.55;;;;;;;;;;8499752;27;20043;-92
2022/03/25 00:33:12;;;;;;;25.67;12.50;;;;;;;;;;8494716;27;20443;-92
2022/03/25 00:37:15;;;;;;;30.27;11.68;;;;;;;;;;8478661;27;20046;-92
2022/03/25 00:41:18;;;;;;;32.25;13.32;;;;;;;;;;8487667;27;20544;-91
2022/03/25 00:45:22;;;;;;;34.70;13.38;;;;;;;;;;8487267;27;20062;-89
2022/03/25 00:49:25;;;;;;;31.35;14.38;;;;;;;;;;8484055;27;20035;-93
2022/03/25 00:53:27;;;;;;;33.08;14.18;;;;;;;;;;8494404;27;20053;-91
2022/03/25 00:57:30;;;;;;;27.45;12.52;;;;;;;;;;8494243;27;20107;-90
2022/03/25 01:01:34;;;;;;;33.15;12.63;;;;;;;;;;8497013;27;20039;-90
2022/03/25 01:05:36;;;;;;;36.78;14.20;;;;;;;;;;8492467;27;20055;-92
2022/03/25 01:09:40;;;;;;;32.85;14.52;;;;;;;;;;8488964;27;20047;-92
2022/03/25 01:13:43;;;;;;;41.35;15.13;;;;;;;;;;8492991;27;20050;-90
2022/03/25 01:17:47;;;;;;;40.60;14.57;;;;;;;;;;8501234;27;20039;-90
2022/03/25 01:21:49;;;;;;;32.95;13.10;;;;;;;;;;8501255;27;20043;-89
2022/03/25 01:25:53;;;;;;;33.65;11.88;;;;;;;;;;8500020;27;20050;-91
2022/03/25 01:29:56;;;;;;;35.78;14.55;;;;;;;;;;8487087;27;20051;-92
2022/03/25 01:34:01;;;;;;;33.38;14.23;;;;;;;;;;8485314;27;20048;-89
2022/03/25 01:38:04;;;;;;;36.97;13.55;;;;;;;;;;8489246;27;20045;-90
2022/03/25 01:42:07;;;;;;;29.60;13.20;;;;;;;;;;8499685;27;20478;-91
2022/03/25 01:46:09;;;;;;;30.77;12.57;;;;;;;;;;8499941;27;20103;-89
2022/03/25 01:50:21;;;;;;;29.98;13.40;;;;;;;;;;8500283;27;20065;-91
2022/03/25 01:54:27;;;;;;;33.88;14.95;;;;;;;;;;8500207;27;20039;-88
2022/03/25 01:58:32;;;;;;;33.05;14.52;;;;;;;;;;8500040;27;20035;-88
2022/03/25 02:02:37;;;;;;;38.35;14.13;;;;;;;;;;8499917;27;20096;-88
2022/03/25 02:06:42;;;;;;;36.22;15.20;;;;;;;;;;8499878;27;20096;-89
2022/03/25 02:10:45;;;;;;;39.40;15.25;;;;;;;;;;8498716;27;20501;-88
2022/03/25 02:14:47;;;;;;;35.83;15.77;;;;;;;;;;8499482;27;20471;-91
2022/03/25 02:18:50;;;;;;;34.13;14.63;;;;;;;;;;8499349;27;20051;-89
2022/03/25 02:22:54;;;;;;;36.13;14.77;;;;;;;;;;8499087;27;20047;-89
2022/03/25 02:26:58;;;;;;;31.90;14.05;;;;;;;;;;8499003;27;20050;-91
2022/03/25 02:31:01;;;;;;;33.42;15.00;;;;;;;;;;8498761;27;20448;-92
2022/03/25 02:35:05;;;;;;;38.25;15.80;;;;;;;;;;8498856;27;20631;-89
2022/03/25 02:39:10;;;;;;;37.33;15.15;;;;;;;;;;8498807;27;20043;-89
2022/03/25 02:43:13;;;;;;;41.95;14.77;;;;;;;;;;8523329;27;20050;-90
2022/03/25 02:47:16;;;;;;;32.08;15.85;;;;;;;;;;8532840;27;20058;-92
2022/03/25 02:51:18;;;;;;;35.35;13.70;;;;;;;;;;8524199;27;20092;-91
2022/03/25 02:55:23;;;;;;;32.88;14.10;;;;;;;;;;8498512;27;20405;-91
2022/03/25 02:59:26;;;;;;;33.10;14.15;;;;;;;;;;8498400;27;20047;-88
2022/03/25 03:03:29;;;;;;;32.67;13.98;;;;;;;;;;8498460;28;20043;-88
2022/03/25 03:07:31;;;;;;;29.40;12.90;;;;;;;;;;8494387;28;20052;-89
2022/03/25 03:11:35;;;;;;;33.58;15.30;;;;;;;;;;8495691;28;20050;-90
2022/03/25 03:15:38;;;;;;;35.90;13.57;;;;;;;;;;8498009;28;20046;-92
2022/03/25 03:19:41;;;;;;;35.45;14.82;;;;;;;;;;8500266;27;20047;-88
2022/03/25 03:23:45;;;;;;;32.13;13.07;;;;;;;;;;8505114;27;20387;-88
2022/03/25 03:27:49;;;;;;;36.17;14.52;;;;;;;;;;8483670;27;20046;-92
2022/03/25 03:31:52;;;;;;;38.15;14.63;;;;;;;;;;8470983;28;20092;-91
2022/03/25 03:35:55;;;;;;;38.20;15.40;;;;;;;;;;8470840;28;20455;-92
2022/03/25 03:39:58;;;;;;;37.45;15.55;;;;;;;;;;8470775;28;20063;-92
2022/03/25 03:44:02;;;;;;;37.67;15.57;;;;;;;;;;8470925;28;20518;-89
2022/03/25 03:48:05;;;;;;;36.00;17.70;;;;;;;;;;8470429;28;20056;-92
2022/03/25 03:52:09;;;;;;;47.05;16.48;;;;;;;;;;8470580;28;20411;-88
2022/03/25 03:56:12;;;;;;;33.25;15.52;;;;;;;;;;8470383;28;20047;-89
2022/03/25 04:00:16;;;;;;;34.83;15.18;;;;;;;;;;8470593;28;20040;-92
2022/03/25 04:04:18;;;;;;;37.72;15.40;;;;;;;;;;8470453;28;20055;-93
2022/03/25 04:08:23;;;;;;;50.90;17.45;;;;;;;;;;8469986;28;20107;-91
2022/03/25 04:12:25;;;;;;;36.33;15.35;;;;;;;;;;8469619;28;20092;-93
2022/03/25 04:16:31;;;;;;;36.92;15.93;;;;;;;;;;8469745;28;20039;-93
2022/03/25 04:20:34;;;;;;;41.85;18.17;;;;;;;;;;8469688;28;20475;-89
2022/03/25 04:24:37;;;;;;;36.45;16.58;;;;;;;;;;8469537;28;20036;-92
2022/03/25 04:28:39;;;;;;;38.83;17.60;;;;;;;;;;8469292;28;20047;-93
2022/03/25 04:32:43;;;;;;;40.10;16.48;;;;;;;;;;8468757;28;20043;-89
2022/03/25 04:36:46;;;;;;;46.85;19.27;;;;;;;;;;8469287;28;20048;-92
2022/03/25 04:40:49;;;;;;;49.50;19.40;;;;;;;;;;8474536;27;20047;-92
2022/03/25 04:44:51;;;;;;;37.55;16.35;;;;;;;;;;8503006;27;20054;-91
2022/03/25 04:48:56;;;;;;;58.45;24.00;;;;;;;;;;8502479;27;20054;-88
2022/03/25 04:52:58;;;;;;;48.58;21.85;;;;;;;;;;8502570;27;20067;-92
2022/03/25 04:57:01;;;;;;;49.97;23.02;;;;;;;;;;8502439;27;20043;-92
2022/03/25 05:01:04;;;;;;;45.83;20.00;;;;;;;;;;8502177;27;20039;-91
2022/03/25 05:05:09;;;;;;;51.97;19.52;;;;;;;;;;8501918;27;20043;-89
2022/03/25 05:09:11;;;;;;;44.40;16.95;;;;;;;;;;8498640;27;20359;-90
2022/03/25 05:13:14;;;;;;;43.70;17.15;;;;;;;;;;8483606;27;20056;-90
2022/03/25 05:17:17;;;;;;;53.42;20.98;;;;;;;;;;8497632;27;20118;-91
2022/03/25 05:21:21;;;;;;;50.10;22.02;;;;;;;;;;8500665;27;20043;-89
2022/03/25 05:25:24;;;;;;;47.90;18.67;;;;;;;;;;8500922;27;20402;-89
2022/03/25 05:29:27;;;;;;;41.38;17.98;;;;;;;;;;8482434;27;20049;-90
2022/03/25 05:33:29;;;;;;;38.05;15.85;;;;;;;;;;8499630;27;20043;-90
2022/03/25 05:37:34;;;;;;;42.50;16.75;;;;;;;;;;8482110;27;20061;-89
2022/03/25 05:41:37;;;;;;;39.22;16.35;;;;;;;;;;8500295;27;20039;-90
2022/03/25 05:45:40;;;;;;;35.88;17.00;;;;;;;;;;8474563;27;20049;-88
2022/03/25 05:49:43;;;;;;;39.22;17.05;;;;;;;;;;8475122;27;20039;-88
2022/03/25 05:53:47;;;;;;;42.20;18.52;;;;;;;;;;8496738;27;20397;-90
2022/03/25 05:57:49;;;;;;;42.83;18.58;;;;;;;;;;8499156;27;20443;-88
2022/03/25 06:01:52;;;;;;;50.33;19.58;;;;;;;;;;8499359;27;20043;-87
2022/03/25 06:05:55;;;;;;;44.67;18.95;;;;;;;;;;8499132;27;20108;-87
2022/03/25 06:10:00;;;;;;;53.03;20.70;;;;;;;;;;8499052;27;20043;-88
2022/03/25 06:14:02;;;;;;;56.95;23.63;;;;;;;;;;8497046;27;20051;-89
2022/03/25 06:18:05;;;;;;;57.92;25.70;;;;;;;;;;8485670;27;20049;-89
2022/03/25 06:22:08;;;;;;;73.53;30.90;;;;;;;;;;8489074;27;20053;-89
2022/03/25 06:26:12;;;;;;;63.03;26.00;;;;;;;;;;8492342;27;20036;-89
2022/03/25 06:30:16;;;;;;;64.50;25.83;;;;;;;;;;8485815;27;20444;-90
2022/03/25 06:34:23;;;;;;;54.22;25.05;;;;;;;;;;8474805;27;20043;-90
2022/03/25 06:38:25;;;;;;;52.58;24.90;;;;;;;;;;8464376;28;20101;-89
2022/03/25 06:42:31;;;;;;;60.20;25.60;;;;;;;;;;8471995;27;20109;-91
2022/03/25 06:46:33;;;;;;;53.63;22.60;;;;;;;;;;8464128;28;20108;-89
2022/03/25 06:50:37;;;;;;;50.75;24.13;;;;;;;;;;8466691;27;20126;-88
2022/03/25 06:54:40;;;;;;;57.97;24.42;;;;;;;;;;8497736;27;20070;-89
2022/03/25 06:58:46;;;;;;;53.40;24.15;;;;;;;;;;8492920;27;20473;-89
2022/03/25 07:02:51;;;;;;;53.95;23.25;;;;;;;;;;8465467;28;20059;-91
2022/03/25 07:06:59;;;;;;;43.65;21.45;;;;;;;;;;8463102;28;20040;-89
2022/03/25 07:11:09;;;;;;;57.25;24.20;;;;;;;;;;8463300;28;20043;-89
2022/03/25 07:15:15;;;;;;;52.22;25.48;;;;;;;;;;8475426;28;20471;-89
2022/03/25 07:19:18;;;;;;;50.65;26.25;;;;;;;;;;8462479;28;20055;-89
2022/03/25 07:23:21;;;;;;;56.83;25.90;;;;;;;;;;8486526;28;20047;-90
2022/03/25 07:27:24;;;;;;;65.43;28.33;;;;;;;;;;8467847;28;20040;-91
2022/03/25 07:31:28;;;;;;;75.82;29.88;;;;;;;;;;8444057;28;20044;-92
2022/03/25 07:35:31;;;;;;;61.03;27.13;;;;;;;;;;8462540;28;20475;-90
2022/03/25 07:39:34;;;;;;;55.78;25.23;;;;;;;;;;8463145;28;20096;-91
2022/03/25 07:43:38;;;;;;;40.28;20.58;;;;;;;;;;8462641;28;20126;-91
2022/03/25 07:47:50;;;;;;;41.20;21.52;;;;;;;;;;8473406;28;20062;-91
2022/03/25 07:51:56;;;;;;;38.15;19.63;;;;;;;;;;8497499;28;20042;-91
2022/03/25 07:56:01;;;;;;;35.88;19.52;;;;;;;;;;8496714;28;20074;-90
2022/03/25 08:00:11;;;;;;;37.63;19.00;;;;;;;;;;8458018;28;20055;-89
2022/03/25 08:04:15;;;;;;;31.13;15.80;;;;;;;;;;8489851;28;20051;-90
2022/03/25 08:08:19;;;;;;;33.85;16.83;;;;;;;;;;8499107;27;20057;-91
2022/03/25 08:12:22;;;;;;;28.02;14.35;;;;;;;;;;8490315;27;20544;-91
2022/03/25 08:16:25;;;;;;;31.65;14.23;;;;;;;;;;8472737;27;20507;-90
2022/03/25 08:20:33;;;;;;;26.77;12.18;;;;;;;;;;8491980;27;20046;-91
2022/03/25 08:28:57;;;;;;;19.30;9.07;;;;;;;;;;8473757;27;20479;-91
2022/03/25 08:33:00;;;;;;;15.98;7.88;;;;;;;;;;8477762;27;20040;-91
2022/03/25 08:37:05;;;;;;;17.95;7.72;;;;;;;;;;8490318;27;20066;-90
2022/03/25 08:41:07;;;;;;;18.17;9.13;;;;;;;;;;8490663;27;20482;-91
2022/03/25 08:45:13;;;;;;;21.38;10.60;;;;;;;;;;8492700;27;20122;-92
2022/03/25 08:49:15;;;;;;;11.93;6.35;;;;;;;;;;8491777;27;20044;-92
2022/03/25 08:53:20;;;;;;;17.95;6.90;;;;;;;;;;8484147;27;20044;-92
2022/03/25 08:57:22;;;;;;;17.73;7.78;;;;;;;;;;8470861;27;20050;-92
2022/03/25 09:01:26;;;;;;;16.17;7.82;;;;;;;;;;8486400;27;20069;-92
2022/03/25 09:05:28;;;;;;;18.52;8.20;;;;;;;;;;8483913;27;20050;-92
2022/03/25 09:09:34;;;;;;;21.77;8.48;;;;;;;;;;8501727;27;20051;-92
2022/03/25 09:13:37;;;;;;;21.13;10.23;;;;;;;;;;8501521;27;20047;-92
2022/03/25 09:17:40;;;;;;;17.23;8.07;;;;;;;;;;8501559;27;20047;-94
2022/03/25 09:21:43;;;;;;;19.20;8.85;;;;;;;;;;8502000;27;20039;-93
2022/03/25 09:25:48;;;;;;;16.73;8.52;;;;;;;;;;8501315;27;20047;-93
2022/03/25 09:29:50;;;;;;;17.58;8.65;;;;;;;;;;8502159;27;20058;-94
2022/03/25 09:35:08;;;;;;;20.83;9.60;;;;;;;;;;8501904;27;20564;-93
2022/03/25 09:38:16;;;;;;;20.30;9.60;;;;;;;;;;8501822;27;20567;-93
2022/03/25 09:42:20;;;;;;;19.25;8.90;;;;;;;;;;8504179;27;20050;-94
2022/03/25 09:46:23;;;;;;;17.15;8.93;;;;;;;;;;8502726;27;20055;-94
2022/03/25 09:50:28;;;;;;;16.85;9.48;;;;;;;;;;8501600;27;20068;-94
2022/03/25 09:54:31;;;;;;;18.35;9.35;;;;;;;;;;8502107;27;20043;-93
2022/03/25 09:58:35;;;;;;;15.48;8.70;;;;;;;;;;8502239;27;20062;-93
2022/03/25 10:02:41;;;;;;;16.27;8.80;;;;;;;;;;8473962;27;20530;-94
2022/03/25 10:06:47;;;;;;;16.27;8.45;;;;;;;;;;8467093;28;20052;-93
2022/03/25 10:10:50;;;;;;;19.73;8.10;;;;;;;;;;8466737;28;20047;-93
2022/03/25 10:15:14;;;;;;;13.70;7.30;;;;;;;;;;8466519;28;20403;-94
2022/03/25 10:19:21;;;;;;;13.88;7.57;;;;;;;;;;8466412;28;20043;-95
2022/03/25 10:23:24;;;;;;;12.80;6.43;;;;;;;;;;8471576;28;20511;-94
2022/03/25 10:27:28;;;;;;;13.85;7.25;;;;;;;;;;8466661;28;20082;-94
2022/03/25 11:12:12;;;;;;;17.08;7.80;;;;;;;;;;8397963;28;20406;-82
2022/03/25 11:16:17;;;;;;;10.68;6.05;;;;;;;;;;8398662;28;20075;-82
2022/03/25 11:20:22;;;;;;;17.98;7.72;;;;;;;;;;8400994;28;20497;-83
2022/03/25 11:24:31;;;;;;;15.30;6.60;;;;;;;;;;8395247;28;20522;-82
2022/03/25 11:28:35;;;;;;;14.55;7.25;;;;;;;;;;8397799;28;20041;-83
2022/03/25 11:32:49;;;;;;;10.80;6.20;;;;;;;;;;8405457;28;20052;-80
2022/03/25 11:37:16;;;;;;;14.05;6.03;;;;;;;;;;8393950;28;20052;-81
2022/03/25 11:41:24;;;;;;;16.17;6.32;;;;;;;;;;8395615;28;20040;-85
2022/03/25 11:45:36;;;;;;;13.65;6.65;;;;;;;;;;8395167;28;20131;-82
2022/03/25 11:49:40;;;;;;;19.02;7.30;;;;;;;;;;8394013;28;20148;-82
2022/03/25 11:53:43;;;;;;;15.55;6.50;;;;;;;;;;8390058;28;20045;-82
2022/03/25 11:57:46;;;;;;;16.90;7.13;;;;;;;;;;8394744;28;20066;-82
2022/03/25 12:01:51;;;;;;;17.45;8.48;;;;;;;;;;8393578;28;20045;-82
2022/03/25 12:05:59;;;;;;;14.85;5.90;;;;;;;;;;8405355;28;20407;-82
2022/03/25 12:10:03;;;;;;;15.20;6.80;;;;;;;;;;8403803;28;20134;-82
2022/03/25 12:14:08;;;;;;;11.02;5.55;;;;;;;;;;8410236;28;20131;-84
2022/03/25 12:18:44;;;;;;;14.07;6.15;;;;;;;;;;8406289;28;20094;-81
2022/03/25 12:22:47;;;;;;;14.00;6.95;;;;;;;;;;8408472;28;20047;-81
2022/03/25 12:26:56;;;;;;;17.65;6.75;;;;;;;;;;8413992;28;20044;-81
2022/03/25 12:31:04;;;;;;;21.20;10.13;;;;;;;;;;8399785;28;20045;-82
2022/03/25 12:35:11;;;;;;;13.15;6.38;;;;;;;;;;8409692;28;20044;-82
2022/03/25 12:39:14;;;;;;;13.55;6.35;;;;;;;;;;8413700;28;20113;-86
2022/03/25 12:43:17;;;;;;;12.43;6.70;;;;;;;;;;8405601;28;20051;-83
2022/03/25 12:47:30;;;;;;;16.02;7.55;;;;;;;;;;8401674;28;20048;-82
2022/03/25 12:51:34;;;;;;;16.10;7.65;;;;;;;;;;8407284;28;20044;-83
2022/03/25 12:55:41;;;;;;;14.98;7.57;;;;;;;;;;8403448;28;20040;-83
2022/03/25 12:59:55;;;;;;;10.98;5.75;;;;;;;;;;8412966;28;20106;-84
2022/03/25 13:03:58;;;;;;;13.95;8.18;;;;;;;;;;8405968;28;20048;-81
2022/03/25 13:08:04;;;;;;;15.60;7.65;;;;;;;;;;8410912;28;20059;-82
2022/03/25 13:12:08;;;;;;;14.07;7.18;;;;;;;;;;8345817;28;20045;-83
2022/03/25 13:16:11;;;;;;;17.10;7.72;;;;;;;;;;8346481;28;20049;-84
2022/03/25 13:20:16;;;;;;;16.85;8.55;;;;;;;;;;8349670;28;20048;-81
2022/03/25 13:24:21;;;;;;;16.65;8.55;;;;;;;;;;8338087;28;20095;-81
2022/03/25 13:28:35;;;;;;;16.45;8.90;;;;;;;;;;8342088;28;20041;-82
2022/03/25 13:32:39;;;;;;;21.98;9.65;;;;;;;;;;8351814;28;20044;-81
2022/03/25 13:36:54;;;;;;;19.08;9.95;;;;;;;;;;8347105;28;20072;-82
2022/03/25 13:40:59;;;;;;;22.15;9.95;;;;;;;;;;8343211;28;20064;-82
2022/03/25 13:45:07;;;;;;;24.52;10.35;;;;;;;;;;8341575;28;20057;-81
2022/03/25 13:49:12;;;;;;;17.75;9.20;;;;;;;;;;8338834;28;20036;-83
2022/03/25 13:53:31;;;;;;;18.92;10.38;;;;;;;;;;8349111;28;20090;-81
2022/03/25 13:57:35;;;;;;;20.73;10.15;;;;;;;;;;8339370;28;20049;-82
2022/03/25 14:15:27;;;;;;;19.92;10.38;;;;;;;;;;8362686;27;2335376;-82
2022/03/25 14:19:32;;;;;;;25.92;10.40;;;;;;;;;;8431467;28;20051;-81
2022/03/25 14:23:37;;;;;;;18.08;9.82;;;;;;;;;;8427530;28;20032;-81
2022/03/25 14:27:46;;;;;;;24.15;9.32;;;;;;;;;;8418698;28;20054;-83
2022/03/25 14:31:53;;;;;;;19.15;9.35;;;;;;;;;;8447306;28;20118;-88
2022/03/25 14:36:03;;;;;;;17.67;9.38;;;;;;;;;;8429503;28;20097;-79
2022/03/25 14:40:08;;;;;;;19.98;10.55;;;;;;;;;;8427061;28;20040;-80
2022/03/25 14:44:16;;;;;;;17.58;8.60;;;;;;;;;;8431840;28;20040;-80
2022/03/25 14:48:21;;;;;;;17.65;9.60;;;;;;;;;;8428830;28;20050;-80
2022/03/25 14:52:29;;;;;;;18.67;8.88;;;;;;;;;;8427136;28;20041;-80
2022/03/25 14:56:37;;;;;;;16.65;8.55;;;;;;;;;;8428540;28;20533;-81
2022/03/25 15:00:45;;;;;;;22.77;9.63;;;;;;;;;;8427817;28;20044;-80
2022/03/25 15:04:51;;;;;;;20.15;10.05;;;;;;;;;;8428654;28;20049;-84
2022/03/25 15:08:55;;;;;;;19.63;9.43;;;;;;;;;;8426198;28;20040;-81
2022/03/25 15:12:59;;;;;;;20.42;9.02;;;;;;;;;;8419260;28;20056;-82
2022/03/25 15:17:03;;;;;;;21.67;9.45;;;;;;;;;;8402620;28;20040;-83
2022/03/25 15:21:08;;;;;;;19.92;10.55;;;;;;;;;;8405453;28;20044;-83
2022/03/25 15:25:17;;;;;;;21.63;10.15;;;;;;;;;;8397796;28;20032;-83
2022/03/25 15:38:08;;;;;;;35.03;12.70;;;;;;;;;;8408790;28;20044;-83
2022/03/25 15:42:13;;;;;;;27.65;11.35;;;;;;;;;;8407087;28;20116;-83
2022/03/25 15:46:16;;;;;;;19.65;10.85;;;;;;;;;;8403823;28;20048;-83
2022/03/25 15:50:19;;;;;;;32.42;14.68;;;;;;;;;;8404077;28;20110;-83
2022/03/25 15:54:23;;;;;;;19.60;10.77;;;;;;;;;;8401238;28;20043;-83
2022/03/25 15:58:30;;;;;;;31.02;12.07;;;;;;;;;;8404371;28;20044;-82
2022/03/25 16:02:33;;;;;;;25.05;11.15;;;;;;;;;;8406505;28;20043;-81
2022/03/25 16:06:38;;;;;;;23.25;12.27;;;;;;;;;;8402556;28;20063;-82
2022/03/25 16:10:42;;;;;;;25.88;13.27;;;;;;;;;;8408378;28;20052;-82
2022/03/25 16:14:47;;;;;;;46.60;20.23;;;;;;;;;;8404195;28;20064;-82
2022/03/25 16:18:50;;;;;;;66.25;28.15;;;;;;;;;;8405713;28;20040;-82
2022/03/25 16:22:54;;;;;;;44.53;21.17;;;;;;;;;;8404808;28;20047;-82
2022/03/25 16:27:08;;;;;;;46.28;18.35;;;;;;;;;;8403360;28;20067;-82
2022/03/25 16:31:19;;;;;;;45.65;20.35;;;;;;;;;;8402713;28;20055;-82
2022/03/25 16:35:58;;;;;;;27.48;15.05;;;;;;;;;;8408273;28;20040;-82
2022/03/25 16:40:25;;;;;;;30.70;16.13;;;;;;;;;;8398704;28;20139;-81
2022/03/25 16:44:54;;;;;;;31.17;13.88;;;;;;;;;;8402414;28;20047;-81
2022/03/25 16:49:17;;;;;;;50.45;24.67;;;;;;;;;;8401438;28;20047;-81
2022/03/25 16:53:45;;;;;;;44.60;22.35;;;;;;;;;;8403554;28;20052;-82
2022/03/25 16:58:10;;;;;;;44.70;20.40;;;;;;;;;;8402878;28;20480;-81
2022/03/25 17:02:35;;;;;;;55.47;22.30;;;;;;;;;;8402360;28;20051;-81
2022/03/25 17:06:56;;;;;;;;;;;;;;;;;;8397474;28;20051;-81
2022/03/25 17:15:58;;;;;;;52.90;19.73;;;;;;;;;;8377403;28;20053;-81
2022/03/25 17:20:12;;;;;;;57.15;21.10;;;;;;;;;;8364801;28;20127;-81
2022/03/25 17:24:21;;;;;;;63.20;21.70;;;;;;;;;;8364494;28;20082;-81
2022/03/25 17:28:46;;;;;;;57.17;21.13;;;;;;;;;;8364342;28;20059;-81
2022/03/25 17:33:05;;;;;;;52.47;20.77;;;;;;;;;;8371853;28;20525;-81
2022/03/25 17:37:24;;;;;;;70.00;25.50;;;;;;;;;;8363773;28;20049;-81
2022/03/25 17:41:42;;;;;;;38.95;18.05;;;;;;;;;;8367735;28;20048;-81
2022/03/25 17:45:54;;;;;;;111.80;31.90;;;;;;;;;;8367718;28;20407;-81
2022/03/25 17:49:59;;;;;;;118.20;33.20;;;;;;;;;;8366103;28;20048;-81
2022/03/25 17:54:04;;;;;;;42.72;19.23;;;;;;;;;;8363518;28;20053;-81
2022/03/25 17:58:07;;;;;;;43.08;17.05;;;;;;;;;;8365831;28;20045;-80
2022/03/25 18:02:10;;;;;;;44.72;21.80;;;;;;;;;;8363456;28;20397;-80
2022/03/25 18:06:15;;;;;;;50.30;19.00;;;;;;;;;;8363803;28;20075;-81
2022/03/25 18:10:19;;;;;;;42.10;18.70;;;;;;;;;;8365262;28;20053;-81
2022/03/25 18:14:22;;;;;;;36.25;17.00;;;;;;;;;;8411146;28;20060;-81
2022/03/25 18:18:27;;;;;;;36.83;16.42;;;;;;;;;;8413002;28;20395;-81
2022/03/25 18:22:30;;;;;;;34.65;16.70;;;;;;;;;;8396433;28;20036;-81
2022/03/25 18:26:35;;;;;;;35.47;16.83;;;;;;;;;;8395894;28;20472;-81
2022/03/25 18:30:38;;;;;;;29.98;14.52;;;;;;;;;;8399866;28;20044;-81
2022/03/25 18:34:41;;;;;;;34.28;16.85;;;;;;;;;;8396300;28;20075;-81
2022/03/25 18:38:45;;;;;;;29.48;16.88;;;;;;;;;;8396419;28;20053;-80
2022/03/25 18:42:51;;;;;;;32.83;14.52;;;;;;;;;;8396342;28;20075;-81
2022/03/25 18:46:54;;;;;;;30.52;13.68;;;;;;;;;;8376473;28;20047;-81
2022/03/25 18:50:58;;;;;;;23.80;12.30;;;;;;;;;;8400953;28;20051;-80
2022/03/25 18:55:06;;;;;;;22.40;12.18;;;;;;;;;;8405572;28;20056;-81
2022/03/25 18:59:13;;;;;;;29.20;14.02;;;;;;;;;;8403255;28;20090;-80
2022/03/25 19:03:19;;;;;;;32.15;14.35;;;;;;;;;;8401796;28;20480;-81
2022/03/25 19:07:27;;;;;;;37.40;22.33;;;;;;;;;;8401286;28;20049;-81
2022/03/25 19:11:34;;;;;;;32.83;17.83;;;;;;;;;;8402251;28;20044;-82
2022/03/25 19:15:45;;;;;;;23.58;11.50;;;;;;;;;;8407277;28;20068;-81
2022/03/25 19:24:56;;;;;;;391.80;113.65;;;;;;;;;;8412413;28;20480;-83
2022/03/25 19:29:01;;;;;;;45.75;22.13;;;;;;;;;;8417392;28;20049;-81
2022/03/25 19:33:13;;;;;;;135.13;35.45;;;;;;;;;;8409050;28;20055;-83
2022/03/25 19:37:21;;;;;;;58.42;21.08;;;;;;;;;;8416301;28;20051;-80
2022/03/25 19:41:29;;;;;;;107.97;28.15;;;;;;;;;;8411607;28;20048;-83
2022/03/25 19:45:38;;;;;;;39.55;14.20;;;;;;;;;;8418066;28;20064;-95
2022/03/25 19:50:04;;;;;;;26.58;13.10;;;;;;;;;;8408311;28;20049;-81
2022/03/25 19:54:27;;;;;;;114.78;28.90;;;;;;;;;;8409960;28;20083;-81
2022/03/25 19:58:42;;;;;;;24.45;11.55;;;;;;;;;;8403406;28;20068;-80
2022/03/25 20:02:54;;;;;;;30.98;13.07;;;;;;;;;;8404731;28;20045;-80
2022/03/25 20:07:10;;;;;;;44.50;16.90;;;;;;;;;;8404360;28;20063;-80
2022/03/25 20:11:31;;;;;;;32.70;16.27;;;;;;;;;;8399734;28;20128;-81
2022/03/25 20:15:42;;;;;;;35.47;16.70;;;;;;;;;;8397350;28;20060;-81
2022/03/25 20:19:49;;;;;;;41.75;17.00;;;;;;;;;;8402305;28;20503;-80
2022/03/25 20:23:54;;;;;;;34.67;13.50;;;;;;;;;;8406590;28;20195;-80
2022/03/25 20:27:59;;;;;;;29.80;13.10;;;;;;;;;;8404554;28;20045;-81
2022/03/25 20:32:05;;;;;;;91.68;24.80;;;;;;;;;;8405948;28;20040;-80
2022/03/25 20:36:09;;;;;;;61.25;19.83;;;;;;;;;;8410282;28;20048;-80
2022/03/25 20:40:15;;;;;;;56.83;17.77;;;;;;;;;;8404807;28;20061;-80
2022/03/25 20:44:20;;;;;;;41.45;16.30;;;;;;;;;;8403416;28;20127;-81
2022/03/25 20:48:29;;;;;;;28.85;13.48;;;;;;;;;;8399058;28;20040;-81
2022/03/25 20:52:36;;;;;;;31.80;13.63;;;;;;;;;;8401156;28;20048;-81
2022/03/25 20:56:42;;;;;;;32.20;13.65;;;;;;;;;;8403034;28;20045;-80
2022/03/25 21:00:45;;;;;;;34.08;13.98;;;;;;;;;;8402686;28;20451;-81
2022/03/25 21:04:51;;;;;;;32.25;14.18;;;;;;;;;;8397862;28;20119;-81
2022/03/25 21:08:57;;;;;;;51.05;18.33;;;;;;;;;;8399959;28;20047;-82
2022/03/25 21:13:03;;;;;;;35.17;14.73;;;;;;;;;;8397260;28;20060;-81
2022/03/25 21:17:10;;;;;;;29.98;12.48;;;;;;;;;;8404191;28;20040;-79
2022/03/25 21:21:14;;;;;;;57.15;20.05;;;;;;;;;;8397297;28;20069;-81
2022/03/25 21:25:19;;;;;;;31.00;13.80;;;;;;;;;;8403139;28;20036;-81
2022/03/25 21:29:25;;;;;;;37.83;14.68;;;;;;;;;;8401643;28;20087;-87
2022/03/25 21:33:29;;;;;;;37.22;15.75;;;;;;;;;;8403985;28;20052;-82
2022/03/25 21:37:37;;;;;;;27.42;12.90;;;;;;;;;;8399484;28;20082;-81
2022/03/25 21:41:43;;;;;;;37.58;15.05;;;;;;;;;;8396271;28;20043;-80
2022/03/25 21:45:47;;;;;;;49.72;18.77;;;;;;;;;;8400005;28;20511;-81
2022/03/25 21:49:50;;;;;;;37.13;15.13;;;;;;;;;;8398866;28;20063;-81
2022/03/25 21:53:53;;;;;;;41.05;16.25;;;;;;;;;;8404789;28;20139;-79
2022/03/25 21:57:59;;;;;;;31.05;16.25;;;;;;;;;;8406438;28;20135;-90
2022/03/25 22:02:04;;;;;;;61.72;23.85;;;;;;;;;;8406557;28;20075;-91
2022/03/25 22:06:07;;;;;;;43.58;18.15;;;;;;;;;;8403164;28;20048;-81
2022/03/25 22:10:10;;;;;;;39.80;16.77;;;;;;;;;;8401886;28;20508;-79
2022/03/25 22:14:14;;;;;;;39.17;16.45;;;;;;;;;;8406394;28;20080;-83
2022/03/25 22:18:18;;;;;;;29.45;13.57;;;;;;;;;;8407504;28;20495;-80
2022/03/25 22:22:21;;;;;;;34.92;14.80;;;;;;;;;;8406330;28;20044;-80
2022/03/25 22:26:24;;;;;;;42.85;14.18;;;;;;;;;;8415190;28;20454;-80
2022/03/25 22:30:27;;;;;;;31.85;15.05;;;;;;;;;;8408315;28;20048;-80
2022/03/25 22:34:33;;;;;;;41.13;16.55;;;;;;;;;;8413095;28;20089;-79
2022/03/25 22:38:36;;;;;;;33.55;14.07;;;;;;;;;;8412050;28;20080;-79
2022/03/25 22:42:38;;;;;;;40.08;16.23;;;;;;;;;;8411074;28;20063;-80
2022/03/25 22:46:41;;;;;;;32.92;14.77;;;;;;;;;;8424125;28;20043;-80
2022/03/25 22:50:46;;;;;;;35.00;13.88;;;;;;;;;;8407161;28;20044;-80
2022/03/25 22:54:49;;;;;;;31.17;14.93;;;;;;;;;;8416111;28;20044;-79
2022/03/25 22:58:51;;;;;;;35.13;13.13;;;;;;;;;;8401617;28;20055;-78
2022/03/25 23:02:54;;;;;;;32.13;14.00;;;;;;;;;;8403874;28;20587;-77
2022/03/25 23:06:58;;;;;;;36.08;17.13;;;;;;;;;;8409601;28;20045;-78
2022/03/25 23:11:01;;;;;;;40.58;16.58;;;;;;;;;;8421912;28;20047;-78
2022/03/25 23:15:03;;;;;;;40.22;15.35;;;;;;;;;;8428177;28;20455;-79
2022/03/25 23:19:07;;;;;;;32.65;13.95;;;;;;;;;;8434389;28;20059;-80
2022/03/25 23:23:11;;;;;;;38.53;14.45;;;;;;;;;;8413099;28;20376;-79
2022/03/25 23:27:14;;;;;;;32.97;14.05;;;;;;;;;;8405632;28;20051;-80
2022/03/25 23:31:17;;;;;;;31.75;14.75;;;;;;;;;;8416344;28;20051;-79
2022/03/25 23:35:23;;;;;;;37.75;14.77;;;;;;;;;;8404877;28;20067;-79
2022/03/25 23:39:27;;;;;;;30.00;14.20;;;;;;;;;;8423854;28;20517;-79
2022/03/25 23:43:30;;;;;;;34.17;14.27;;;;;;;;;;8420286;28;20070;-78
2022/03/25 23:47:33;;;;;;;29.35;12.63;;;;;;;;;;8422171;28;20451;-79
2022/03/25 23:51:35;;;;;;;36.78;13.75;;;;;;;;;;8405786;28;20055;-79
2022/03/25 23:55:39;;;;;;;37.42;15.15;;;;;;;;;;8406644;28;20055;-79
2022/03/25 23:59:42;;;;;;;30.60;12.88;;;;;;;;;;8399707;28;20047;-79
